createdAt,value
2022-08-26T00:19:16.941Z,996.15
2022-08-26T00:48:10.038Z,996.32
2022-08-26T01:17:05.938Z,996.42
2022-08-26T01:46:05.447Z,996.5
2022-08-26T02:15:11.406Z,996.7
2022-08-26T02:43:48.632Z,996.8
2022-08-26T03:12:48.467Z,996.65
2022-08-26T03:41:32.326Z,996.58
2022-08-26T04:10:31.408Z,996.64
2022-08-26T04:39:32.273Z,996.76
2022-08-26T05:08:23.262Z,996.93
2022-08-26T05:36:49.991Z,997.21
2022-08-26T06:05:58.116Z,997.29
2022-08-26T06:35:14.836Z,997.42
2022-08-26T07:04:11.057Z,997.52
2022-08-26T07:32:58.682Z,997.44
2022-08-26T08:01:45.964Z,997.41
2022-08-26T08:30:45.436Z,997.23
2022-08-26T08:59:48.657Z,997.23
2022-08-26T09:28:55.006Z,997.03
2022-08-26T09:58:12.978Z,996.68
2022-08-26T10:27:20.970Z,996.28
2022-08-26T10:56:33.654Z,996.19
2022-08-26T11:25:34.389Z,995.83
2022-08-26T11:54:46.342Z,995.62
2022-08-26T12:24:03.032Z,995.42
2022-08-26T12:53:00.649Z,995.34
2022-08-26T13:22:06.495Z,995.11
2022-08-26T13:51:21.704Z,995.17
2022-08-26T14:20:21.388Z,995.3
2022-08-26T14:49:25.017Z,996
2022-08-26T15:18:28.860Z,995.93
2022-08-26T15:47:55.398Z,995.9
2022-08-26T16:16:06.049Z,995.71
2022-08-26T16:45:08.474Z,995.88
2022-08-26T17:14:08.739Z,995.93
2022-08-26T17:43:17.657Z,996.46
2022-08-26T18:12:13.870Z,997.18
2022-08-26T18:41:04.824Z,997.12
2022-08-26T19:09:54.804Z,997.28
2022-08-26T19:38:32.673Z,997.67
2022-08-26T20:07:28.950Z,997.91
2022-08-26T20:36:35.025Z,998.12
2022-08-26T21:05:42.822Z,998.06
2022-08-26T21:34:52.021Z,998.04
2022-08-26T22:04:05.558Z,998.41
